METAR Data
IDs: Format: Raw Decoded Include TAF

Data at: 2010 UTC 26 Sep 2021

EBBR 261950Z 18006KT 9999 FEW022 16/14 Q1015 TEMPO 4500 SHRA TSRA BKN014CB